sensor_id;sensor_type;location;lat;lon;timestamp;pressure;altitude;pressure_sealevel;temperature;humidity
38939;BME280;24211;49.980;19.776;2023-03-04T00:00:31;99471.28;;;1.05;100.00
38939;BME280;24211;49.980;19.776;2023-03-04T00:03:18;99464.88;;;1.07;100.00
38939;BME280;24211;49.980;19.776;2023-03-04T00:05:45;99471.78;;;1.08;100.00
38939;BME280;24211;49.980;19.776;2023-03-04T00:08:13;99466.03;;;1.05;100.00
38939;BME280;24211;49.980;19.776;2023-03-04T00:10:40;99465.19;;;1.04;100.00
38939;BME280;24211;49.980;19.776;2023-03-04T00:13:07;99467.19;;;1.02;100.00
38939;BME280;24211;49.980;19.776;2023-03-04T00:15:34;99470.47;;;1.04;100.00
38939;BME280;24211;49.980;19.776;2023-03-04T00:18:02;99451.06;;;1.05;100.00
38939;BME280;24211;49.980;19.776;2023-03-04T00:20:29;99452.38;;;1.09;100.00
38939;BME280;24211;49.980;19.776;2023-03-04T00:22:56;99452.69;;;1.06;100.00
38939;BME280;24211;49.980;19.776;2023-03-04T00:25:23;99446.47;;;1.07;100.00
38939;BME280;24211;49.980;19.776;2023-03-04T00:27:50;99436.78;;;1.08;100.00
38939;BME280;24211;49.980;19.776;2023-03-04T00:30:17;99436.41;;;1.11;100.00
38939;BME280;24211;49.980;19.776;2023-03-04T00:32:44;99438.75;;;1.14;100.00
38939;BME280;24211;49.980;19.776;2023-03-04T00:35:12;99428.22;;;1.14;100.00
38939;BME280;24211;49.980;19.776;2023-03-04T00:37:39;99429.34;;;1.11;100.00
38939;BME280;24211;49.980;19.776;2023-03-04T00:40:08;99422.28;;;1.04;100.00
38939;BME280;24211;49.980;19.776;2023-03-04T00:42:36;99420.47;;;1.04;100.00
38939;BME280;24211;49.980;19.776;2023-03-04T00:45:04;99416.69;;;1.07;100.00
38939;BME280;24211;49.980;19.776;2023-03-04T00:47:31;99412.56;;;1.04;100.00
38939;BME280;24211;49.980;19.776;2023-03-04T00:49:58;99405.50;;;1.05;100.00
38939;BME280;24211;49.980;19.776;2023-03-04T00:52:26;99401.88;;;1.06;100.00
38939;BME280;24211;49.980;19.776;2023-03-04T00:54:53;99402.88;;;1.05;100.00
38939;BME280;24211;49.980;19.776;2023-03-04T00:57:20;99404.69;;;1.04;100.00
38939;BME280;24211;49.980;19.776;2023-03-04T00:59:47;99400.06;;;1.06;100.00
38939;BME280;24211;49.980;19.776;2023-03-04T01:02:14;99391.19;;;1.07;100.00
38939;BME280;24211;49.980;19.776;2023-03-04T01:04:41;99389.22;;;1.09;100.00
38939;BME280;24211;49.980;19.776;2023-03-04T01:07:09;99379.34;;;1.11;100.00
38939;BME280;24211;49.980;19.776;2023-03-04T01:09:36;99372.78;;;1.07;100.00
38939;BME280;24211;49.980;19.776;2023-03-04T01:12:04;99378.69;;;1.09;100.00
38939;BME280;24211;49.980;19.776;2023-03-04T01:14:31;99361.94;;;1.10;100.00
38939;BME280;24211;49.980;19.776;2023-03-04T01:16:58;99359.31;;;1.10;100.00
38939;BME280;24211;49.980;19.776;2023-03-04T01:19:27;99358.47;;;1.10;100.00
38939;BME280;24211;49.980;19.776;2023-03-04T01:21:54;99350.56;;;1.10;100.00
38939;BME280;24211;49.980;19.776;2023-03-04T01:24:21;99336.41;;;1.11;100.00
38939;BME280;24211;49.980;19.776;2023-03-04T01:26:48;99337.41;;;1.10;100.00
38939;BME280;24211;49.980;19.776;2023-03-04T01:29:15;99331.31;;;1.09;100.00
38939;BME280;24211;49.980;19.776;2023-03-04T01:31:43;99319.81;;;1.10;100.00
38939;BME280;24211;49.980;19.776;2023-03-04T01:34:10;99315.84;;;1.06;100.00
38939;BME280;24211;49.980;19.776;2023-03-04T01:36:46;99311.94;;;1.10;100.00
38939;BME280;24211;49.980;19.776;2023-03-04T01:39:13;99309.94;;;1.12;100.00
38939;BME280;24211;49.980;19.776;2023-03-04T01:41:42;99315.53;;;1.09;100.00
38939;BME280;24211;49.980;19.776;2023-03-04T01:44:10;99303.22;;;1.10;100.00
38939;BME280;24211;49.980;19.776;2023-03-04T01:46:45;99298.59;;;1.12;100.00
38939;BME280;24211;49.980;19.776;2023-03-04T01:49:14;99303.03;;;1.11;100.00
38939;BME280;24211;49.980;19.776;2023-03-04T01:51:47;99296.94;;;1.11;100.00
38939;BME280;24211;49.980;19.776;2023-03-04T01:54:16;99304.84;;;1.11;100.00
38939;BME280;24211;49.980;19.776;2023-03-04T01:56:45;99303.03;;;1.11;100.00
38939;BME280;24211;49.980;19.776;2023-03-04T01:59:23;99290.53;;;1.13;100.00
38939;BME280;24211;49.980;19.776;2023-03-04T02:02:09;99295.13;;;1.11;100.00
38939;BME280;24211;49.980;19.776;2023-03-04T02:04:37;99299.44;;;1.12;100.00
38939;BME280;24211;49.980;19.776;2023-03-04T02:07:06;99287.41;;;1.10;100.00
38939;BME280;24211;49.980;19.776;2023-03-04T02:09:33;99282.31;;;1.08;100.00
38939;BME280;24211;49.980;19.776;2023-03-04T02:12:02;99286.75;;;1.08;100.00
38939;BME280;24211;49.980;19.776;2023-03-04T02:14:29;99280.69;;;1.07;100.00
38939;BME280;24211;49.980;19.776;2023-03-04T02:16:57;99281.50;;;1.08;100.00
38939;BME280;24211;49.980;19.776;2023-03-04T02:19:50;99283.63;;;1.12;100.00
38939;BME280;24211;49.980;19.776;2023-03-04T02:22:20;99281.16;;;1.11;100.00
38939;BME280;24211;49.980;19.776;2023-03-04T02:24:59;99283.63;;;1.12;100.00
38939;BME280;24211;49.980;19.776;2023-03-04T02:27:29;99276.72;;;1.11;100.00
38939;BME280;24211;49.980;19.776;2023-03-04T02:29:56;99280.81;;;1.14;100.00
38939;BME280;24211;49.980;19.776;2023-03-04T02:32:24;99288.91;;;1.12;100.00
38939;BME280;24211;49.980;19.776;2023-03-04T02:34:51;99277.38;;;1.13;100.00
38939;BME280;24211;49.980;19.776;2023-03-04T02:37:20;99275.09;;;1.10;100.00
38939;BME280;24211;49.980;19.776;2023-03-04T02:39:51;99270.63;;;1.11;100.00
38939;BME280;24211;49.980;19.776;2023-03-04T02:42:18;99263.88;;;1.08;100.00
38939;BME280;24211;49.980;19.776;2023-03-04T02:44:46;99275.88;;;1.11;100.00
38939;BME280;24211;49.980;19.776;2023-03-04T02:47:18;99265.03;;;1.14;100.00
38939;BME280;24211;49.980;19.776;2023-03-04T02:49:46;99265.88;;;1.14;100.00
38939;BME280;24211;49.980;19.776;2023-03-04T02:52:22;99255.34;;;1.14;100.00
38939;BME280;24211;49.980;19.776;2023-03-04T02:54:49;99255.00;;;1.17;100.00
38939;BME280;24211;49.980;19.776;2023-03-04T02:57:17;99239.53;;;1.14;100.00
38939;BME280;24211;49.980;19.776;2023-03-04T02:59:49;99240.84;;;1.18;100.00
38939;BME280;24211;49.980;19.776;2023-03-04T03:02:20;99235.56;;;1.18;100.00
38939;BME280;24211;49.980;19.776;2023-03-04T03:04:47;99234.78;;;1.18;100.00
38939;BME280;24211;49.980;19.776;2023-03-04T03:07:17;99230.66;;;1.15;100.00
38939;BME280;24211;49.980;19.776;2023-03-04T03:09:44;99220.47;;;1.12;100.00
38939;BME280;24211;49.980;19.776;2023-03-04T03:12:11;99222.91;;;1.14;100.00
38939;BME280;24211;49.980;19.776;2023-03-04T03:14:38;99228.69;;;1.17;100.00
38939;BME280;24211;49.980;19.776;2023-03-04T03:17:08;99220.16;;;1.15;100.00
38939;BME280;24211;49.980;19.776;2023-03-04T03:19:38;99223.75;;;1.14;100.00
38939;BME280;24211;49.980;19.776;2023-03-04T03:22:07;99213.56;;;1.11;100.00
38939;BME280;24211;49.980;19.776;2023-03-04T03:24:35;99216.38;;;1.10;100.00
38939;BME280;24211;49.980;19.776;2023-03-04T03:27:02;99211.56;;;1.13;100.00
38939;BME280;24211;49.980;19.776;2023-03-04T03:29:30;99197.44;;;1.14;100.00
38939;BME280;24211;49.980;19.776;2023-03-04T03:31:58;99199.41;;;1.12;100.00
38939;BME280;24211;49.980;19.776;2023-03-04T03:34:25;99192.81;;;1.08;100.00
38939;BME280;24211;49.980;19.776;2023-03-04T03:36:52;99192.19;;;1.06;100.00
38939;BME280;24211;49.980;19.776;2023-03-04T03:39:19;99187.28;;;0.95;100.00
38939;BME280;24211;49.980;19.776;2023-03-04T03:41:46;99192.34;;;0.89;100.00
38939;BME280;24211;49.980;19.776;2023-03-04T03:44:14;99195.81;;;0.89;100.00
38939;BME280;24211;49.980;19.776;2023-03-04T03:46:41;99204.38;;;0.91;100.00
38939;BME280;24211;49.980;19.776;2023-03-04T03:49:08;99206.53;;;0.88;100.00
38939;BME280;24211;49.980;19.776;2023-03-04T03:51:35;99211.94;;;0.78;100.00
38939;BME280;24211;49.980;19.776;2023-03-04T03:54:02;99209.97;;;0.72;100.00
38939;BME280;24211;49.980;19.776;2023-03-04T03:56:30;99213.94;;;0.76;100.00
38939;BME280;24211;49.980;19.776;2023-03-04T03:58:57;99213.28;;;0.66;100.00
38939;BME280;24211;49.980;19.776;2023-03-04T04:01:24;99216.03;;;0.64;100.00
38939;BME280;24211;49.980;19.776;2023-03-04T04:03:52;99215.56;;;0.61;100.00
38939;BME280;24211;49.980;19.776;2023-03-04T04:06:19;99212.28;;;0.67;100.00
38939;BME280;24211;49.980;19.776;2023-03-04T04:08:46;99199.44;;;0.64;100.00
38939;BME280;24211;49.980;19.776;2023-03-04T04:11:13;99196.97;;;0.54;100.00
38939;BME280;24211;49.980;19.776;2023-03-04T04:13:40;99196.84;;;0.56;100.00
38939;BME280;24211;49.980;19.776;2023-03-04T04:16:09;99192.88;;;0.60;100.00
38939;BME280;24211;49.980;19.776;2023-03-04T04:18:37;99199.28;;;0.57;100.00
38939;BME280;24211;49.980;19.776;2023-03-04T04:21:05;99201.25;;;0.55;100.00
38939;BME280;24211;49.980;19.776;2023-03-04T04:23:32;99191.25;;;0.59;100.00
38939;BME280;24211;49.980;19.776;2023-03-04T04:26:00;99194.53;;;0.61;100.00
38939;BME280;24211;49.980;19.776;2023-03-04T04:28:27;99189.41;;;0.59;100.00
38939;BME280;24211;49.980;19.776;2023-03-04T04:30:54;99189.28;;;0.61;100.00
38939;BME280;24211;49.980;19.776;2023-03-04T04:33:21;99186.16;;;0.65;100.00
38939;BME280;24211;49.980;19.776;2023-03-04T04:35:49;99190.25;;;0.68;100.00
38939;BME280;24211;49.980;19.776;2023-03-04T04:38:16;99185.81;;;0.69;100.00
38939;BME280;24211;49.980;19.776;2023-03-04T04:40:43;99186.81;;;0.76;100.00
38939;BME280;24211;49.980;19.776;2023-03-04T04:43:10;99189.59;;;0.82;100.00
38939;BME280;24211;49.980;19.776;2023-03-04T04:45:37;99184.66;;;0.87;100.00
38939;BME280;24211;49.980;19.776;2023-03-04T04:48:05;99184.97;;;0.92;100.00
38939;BME280;24211;49.980;19.776;2023-03-04T04:50:32;99184.66;;;0.95;100.00
38939;BME280;24211;49.980;19.776;2023-03-04T04:52:59;99173.63;;;1.00;100.00
38939;BME280;24211;49.980;19.776;2023-03-04T04:55:27;99180.34;;;1.02;100.00
38939;BME280;24211;49.980;19.776;2023-03-04T04:57:54;99173.09;;;1.04;100.00
38939;BME280;24211;49.980;19.776;2023-03-04T05:00:21;99178.88;;;1.08;100.00
38939;BME280;24211;49.980;19.776;2023-03-04T05:02:48;99173.44;;;1.09;100.00
38939;BME280;24211;49.980;19.776;2023-03-04T05:05:15;99168.47;;;1.14;100.00
38939;BME280;24211;49.980;19.776;2023-03-04T05:07:43;99171.44;;;1.19;100.00
38939;BME280;24211;49.980;19.776;2023-03-04T05:10:10;99168.81;;;1.19;100.00
38939;BME280;24211;49.980;19.776;2023-03-04T05:12:37;99164.19;;;1.21;100.00
38939;BME280;24211;49.980;19.776;2023-03-04T05:15:05;99165.84;;;1.22;100.00
38939;BME280;24211;49.980;19.776;2023-03-04T05:17:32;99157.94;;;1.22;100.00
38939;BME280;24211;49.980;19.776;2023-03-04T05:19:59;99162.19;;;1.23;100.00
38939;BME280;24211;49.980;19.776;2023-03-04T05:22:26;99161.22;;;1.24;100.00
38939;BME280;24211;49.980;19.776;2023-03-04T05:24:54;99162.84;;;1.25;100.00
38939;BME280;24211;49.980;19.776;2023-03-04T05:27:21;99161.22;;;1.24;100.00
38939;BME280;24211;49.980;19.776;2023-03-04T05:29:48;99178.63;;;1.25;100.00
38939;BME280;24211;49.980;19.776;2023-03-04T05:32:15;99182.94;;;1.26;100.00
38939;BME280;24211;49.980;19.776;2023-03-04T05:34:42;99176.69;;;1.27;100.00
38939;BME280;24211;49.980;19.776;2023-03-04T05:37:09;99179.66;;;1.24;100.00
38939;BME280;24211;49.980;19.776;2023-03-04T05:39:36;99172.72;;;1.23;100.00
38939;BME280;24211;49.980;19.776;2023-03-04T05:42:03;99179.78;;;1.23;100.00
38939;BME280;24211;49.980;19.776;2023-03-04T05:44:31;99176.00;;;1.25;100.00
38939;BME280;24211;49.980;19.776;2023-03-04T05:46:58;99172.91;;;1.22;100.00
38939;BME280;24211;49.980;19.776;2023-03-04T05:49:25;99185.88;;;1.23;100.00
38939;BME280;24211;49.980;19.776;2023-03-04T05:51:52;99179.00;;;1.22;100.00
38939;BME280;24211;49.980;19.776;2023-03-04T05:54:19;99179.00;;;1.22;100.00
38939;BME280;24211;49.980;19.776;2023-03-04T05:56:47;99169.44;;;1.21;100.00
38939;BME280;24211;49.980;19.776;2023-03-04T05:59:14;99161.88;;;1.18;100.00
38939;BME280;24211;49.980;19.776;2023-03-04T06:01:47;99167.50;;;1.15;100.00
38939;BME280;24211;49.980;19.776;2023-03-04T06:04:14;99158.59;;;1.16;100.00
38939;BME280;24211;49.980;19.776;2023-03-04T06:06:41;99164.88;;;1.15;100.00
38939;BME280;24211;49.980;19.776;2023-03-04T06:09:09;99162.91;;;1.09;100.00
38939;BME280;24211;49.980;19.776;2023-03-04T06:11:36;99164.56;;;1.02;100.00
38939;BME280;24211;49.980;19.776;2023-03-04T06:14:04;99169.19;;;1.00;100.00
38939;BME280;24211;49.980;19.776;2023-03-04T06:16:31;99169.31;;;0.99;100.00
38939;BME280;24211;49.980;19.776;2023-03-04T06:18:58;99171.81;;;0.92;100.00
38939;BME280;24211;49.980;19.776;2023-03-04T06:21:25;99172.13;;;0.89;100.00
38939;BME280;24211;49.980;19.776;2023-03-04T06:23:53;99175.78;;;0.88;100.00
38939;BME280;24211;49.980;19.776;2023-03-04T06:26:20;99168.34;;;0.84;100.00
38939;BME280;24211;49.980;19.776;2023-03-04T06:28:47;99176.75;;;0.79;100.00
38939;BME280;24211;49.980;19.776;2023-03-04T06:31:14;99181.03;;;0.72;100.00
38939;BME280;24211;49.980;19.776;2023-03-04T06:33:41;99176.78;;;0.71;100.00
38939;BME280;24211;49.980;19.776;2023-03-04T06:36:08;99186.31;;;0.72;100.00
38939;BME280;24211;49.980;19.776;2023-03-04T06:38:35;99188.09;;;0.72;100.00
38939;BME280;24211;49.980;19.776;2023-03-04T06:41:10;99191.72;;;0.62;100.00
38939;BME280;24211;49.980;19.776;2023-03-04T06:43:39;99186.16;;;0.65;100.00
38939;BME280;24211;49.980;19.776;2023-03-04T06:46:07;99189.94;;;0.71;100.00
38939;BME280;24211;49.980;19.776;2023-03-04T06:48:35;99190.25;;;0.68;100.00
38939;BME280;24211;49.980;19.776;2023-03-04T06:51:10;99183.03;;;0.70;100.00
38939;BME280;24211;49.980;19.776;2023-03-04T06:53:39;99188.59;;;0.67;100.00
38939;BME280;24211;49.980;19.776;2023-03-04T06:56:08;99175.13;;;0.62;100.00
38939;BME280;24211;49.980;19.776;2023-03-04T06:58:36;99172.81;;;0.67;100.00
38939;BME280;24211;49.980;19.776;2023-03-04T07:01:23;99167.88;;;0.72;100.00
38939;BME280;24211;49.980;19.776;2023-03-04T07:03:52;99177.13;;;0.76;100.00
38939;BME280;24211;49.980;19.776;2023-03-04T07:06:25;99177.44;;;0.73;100.00
38939;BME280;24211;49.980;19.776;2023-03-04T07:08:53;99174.47;;;0.76;100.00
38939;BME280;24211;49.980;19.776;2023-03-04T07:11:20;99183.84;;;0.71;100.00
38939;BME280;24211;49.980;19.776;2023-03-04T07:13:49;99198.47;;;0.65;100.00
38939;BME280;24211;49.980;19.776;2023-03-04T07:16:20;99189.28;;;0.61;100.00
38939;BME280;24211;49.980;19.776;2023-03-04T07:18:48;99182.69;;;0.57;100.00
38939;BME280;24211;49.980;19.776;2023-03-04T07:21:17;99183.50;;;0.57;100.00
38939;BME280;24211;49.980;19.776;2023-03-04T07:23:45;99183.38;;;0.59;100.00
38939;BME280;24211;49.980;19.776;2023-03-04T07:26:12;99181.06;;;0.56;100.00
38939;BME280;24211;49.980;19.776;2023-03-04T07:28:40;99181.06;;;0.56;100.00
38939;BME280;24211;49.980;19.776;2023-03-04T07:31:19;99190.06;;;0.61;100.00
38939;BME280;24211;49.980;19.776;2023-03-04T07:33:47;99191.25;;;0.59;100.00
38939;BME280;24211;49.980;19.776;2023-03-04T07:36:14;99184.66;;;0.55;100.00
38939;BME280;24211;49.980;19.776;2023-03-04T07:38:46;99185.34;;;0.49;100.00
38939;BME280;24211;49.980;19.776;2023-03-04T07:41:15;99193.88;;;0.51;100.00
38939;BME280;24211;49.980;19.776;2023-03-04T07:43:43;99208.50;;;0.53;100.00
38939;BME280;24211;49.980;19.776;2023-03-04T07:46:10;99196.50;;;0.43;100.00
38939;BME280;24211;49.980;19.776;2023-03-04T07:48:38;99200.09;;;0.42;100.00
38939;BME280;24211;49.980;19.776;2023-03-04T07:51:15;99203.72;;;0.41;100.00
38939;BME280;24211;49.980;19.776;2023-03-04T07:53:48;99208.97;;;0.41;100.00
38939;BME280;24211;49.980;19.776;2023-03-04T07:56:20;99210.13;;;0.38;100.00
38939;BME280;24211;49.980;19.776;2023-03-04T07:58:48;99204.53;;;0.41;100.00
38939;BME280;24211;49.980;19.776;2023-03-04T08:01:19;99218.66;;;0.40;100.00
38939;BME280;24211;49.980;19.776;2023-03-04T08:03:48;99214.22;;;0.41;100.00
38939;BME280;24211;49.980;19.776;2023-03-04T08:06:17;99214.56;;;0.38;100.00
38939;BME280;24211;49.980;19.776;2023-03-04T08:08:47;99221.13;;;0.42;100.00
38939;BME280;24211;49.980;19.776;2023-03-04T08:11:20;99232.66;;;0.49;100.00
38939;BME280;24211;49.980;19.776;2023-03-04T08:13:48;99227.22;;;0.50;100.00
38939;BME280;24211;49.980;19.776;2023-03-04T08:16:17;99228.53;;;0.46;100.00
38939;BME280;24211;49.980;19.776;2023-03-04T08:18:52;99221.81;;;0.44;100.00
38939;BME280;24211;49.980;19.776;2023-03-04T08:21:23;99226.06;;;0.45;100.00
38939;BME280;24211;49.980;19.776;2023-03-04T08:23:51;99229.00;;;0.42;100.00
38939;BME280;24211;49.980;19.776;2023-03-04T08:26:26;99228.88;;;0.43;100.00
38939;BME280;24211;49.980;19.776;2023-03-04T08:28:55;99235.44;;;0.47;100.00
38939;BME280;24211;49.980;19.776;2023-03-04T08:31:23;99241.84;;;0.45;100.00
38939;BME280;24211;49.980;19.776;2023-03-04T08:33:51;99231.63;;;0.42;100.00
38939;BME280;24211;49.980;19.776;2023-03-04T08:36:19;99223.59;;;0.43;100.00
38939;BME280;24211;49.980;19.776;2023-03-04T08:38:47;99234.94;;;0.44;100.00
38939;BME280;24211;49.980;19.776;2023-03-04T08:41:14;99241.00;;;0.44;100.00
38939;BME280;24211;49.980;19.776;2023-03-04T08:43:42;99238.53;;;0.43;100.00
38939;BME280;24211;49.980;19.776;2023-03-04T08:46:09;99232.97;;;0.46;100.00
38939;BME280;24211;49.980;19.776;2023-03-04T08:48:37;99236.56;;;0.45;100.00
38939;BME280;24211;49.980;19.776;2023-03-04T08:51:08;99228.69;;;0.53;100.00
38939;BME280;24211;49.980;19.776;2023-03-04T08:53:37;99230.38;;;0.54;100.00
38939;BME280;24211;49.980;19.776;2023-03-04T08:56:05;99231.16;;;0.54;100.00
38939;BME280;24211;49.980;19.776;2023-03-04T08:58:33;99230.38;;;0.54;100.00
38939;BME280;24211;49.980;19.776;2023-03-04T09:01:01;99236.59;;;0.61;100.00
38939;BME280;24211;49.980;19.776;2023-03-04T09:03:39;99235.28;;;0.65;100.00
38939;BME280;24211;49.980;19.776;2023-03-04T09:06:07;99236.25;;;0.64;100.00
38939;BME280;24211;49.980;19.776;2023-03-04T09:08:35;99233.47;;;0.65;100.00
38939;BME280;24211;49.980;19.776;2023-03-04T09:11:02;99232.34;;;0.68;100.00
38939;BME280;24211;49.980;19.776;2023-03-04T09:13:30;99240.88;;;0.70;100.00
38939;BME280;24211;49.980;19.776;2023-03-04T09:15:58;99233.31;;;0.75;100.00
38939;BME280;24211;49.980;19.776;2023-03-04T09:18:27;99232.66;;;0.81;100.00
38939;BME280;24211;49.980;19.776;2023-03-04T09:20:54;99241.03;;;0.77;100.00
38939;BME280;24211;49.980;19.776;2023-03-04T09:23:22;99237.94;;;0.73;100.00
38939;BME280;24211;49.980;19.776;2023-03-04T09:25:49;99228.38;;;0.72;100.00
38939;BME280;24211;49.980;19.776;2023-03-04T09:28:17;99234.63;;;0.79;100.00
38939;BME280;24211;49.980;19.776;2023-03-04T09:30:45;99241.38;;;0.82;100.00
38939;BME280;24211;49.980;19.776;2023-03-04T09:33:13;99241.03;;;0.85;100.00
38939;BME280;24211;49.980;19.776;2023-03-04T09:35:40;99236.59;;;0.85;100.00
38939;BME280;24211;49.980;19.776;2023-03-04T09:38:09;99246.81;;;0.80;100.00
38939;BME280;24211;49.980;19.776;2023-03-04T09:40:44;99241.84;;;0.77;100.00
38939;BME280;24211;49.980;19.776;2023-03-04T09:43:26;99239.88;;;0.79;100.00
38939;BME280;24211;49.980;19.776;2023-03-04T09:45:59;99232.00;;;0.87;100.00
38939;BME280;24211;49.980;19.776;2023-03-04T09:48:37;99237.25;;;0.87;100.00
38939;BME280;24211;49.980;19.776;2023-03-04T09:54:55;99226.75;;;0.95;100.00
38939;BME280;24211;49.980;19.776;2023-03-04T09:57:55;99213.59;;;0.95;100.00
38939;BME280;24211;49.980;19.776;2023-03-04T10:00:46;99220.16;;;0.99;100.00
38939;BME280;24211;49.980;19.776;2023-03-04T10:03:21;99219.81;;;1.02;100.00
38939;BME280;24211;49.980;19.776;2023-03-04T10:06:01;99207.00;;;1.07;100.00
38939;BME280;24211;49.980;19.776;2023-03-04T10:11:36;99201.03;;;1.13;100.00
38939;BME280;24211;49.980;19.776;2023-03-04T10:14:33;99201.38;;;1.18;100.00
38939;BME280;24211;49.980;19.776;2023-03-04T10:17:21;99191.47;;;1.20;100.00
38939;BME280;24211;49.980;19.776;2023-03-04T10:20:23;99207.28;;;1.20;100.00
38939;BME280;24211;49.980;19.776;2023-03-04T10:22:57;99187.41;;;1.18;100.00
38939;BME280;24211;49.980;19.776;2023-03-04T10:25:29;99197.75;;;1.19;100.00
38939;BME280;24211;49.980;19.776;2023-03-04T10:28:15;99195.13;;;1.19;100.00
38939;BME280;24211;49.980;19.776;2023-03-04T10:31:01;99194.13;;;1.20;100.00
38939;BME280;24211;49.980;19.776;2023-03-04T10:33:35;99189.84;;;1.19;100.00
38939;BME280;24211;49.980;19.776;2023-03-04T10:38:58;99184.59;;;1.19;100.00
38939;BME280;24211;49.980;19.776;2023-03-04T10:41:29;99179.00;;;1.22;100.00
38939;BME280;24211;49.980;19.776;2023-03-04T10:44:15;99179.66;;;1.24;100.00
38939;BME280;24211;49.980;19.776;2023-03-04T10:46:46;99176.50;;;1.29;100.00
38939;BME280;24211;49.980;19.776;2023-03-04T10:49:19;99181.94;;;1.27;100.00
38939;BME280;24211;49.980;19.776;2023-03-04T10:52:00;99165.47;;;1.33;100.00
38939;BME280;24211;49.980;19.776;2023-03-04T10:54:48;99171.06;;;1.30;100.00
38939;BME280;24211;49.980;19.776;2023-03-04T10:57:32;99173.22;;;1.35;100.00
38939;BME280;24211;49.980;19.776;2023-03-04T11:00:24;99172.84;;;1.38;100.00
38939;BME280;24211;49.980;19.776;2023-03-04T11:02:52;99162.16;;;1.40;100.00
38939;BME280;24211;49.980;19.776;2023-03-04T11:05:24;99165.13;;;1.37;100.00
38939;BME280;24211;49.980;19.776;2023-03-04T11:07:54;99157.88;;;1.39;100.00
38939;BME280;24211;49.980;19.776;2023-03-04T11:10:31;99157.22;;;1.45;100.00
38939;BME280;24211;49.980;19.776;2023-03-04T11:13:22;99162.59;;;1.51;100.00
38939;BME280;24211;49.980;19.776;2023-03-04T11:21:06;99142.69;;;1.57;100.00
38939;BME280;24211;49.980;19.776;2023-03-04T11:23:43;99152.84;;;1.60;100.00
38939;BME280;24211;49.980;19.776;2023-03-04T11:26:23;99151.53;;;1.64;100.00
38939;BME280;24211;49.980;19.776;2023-03-04T11:28:59;99150.81;;;1.70;100.00
38939;BME280;24211;49.980;19.776;2023-03-04T11:31:42;99138.31;;;1.72;100.00
38939;BME280;24211;49.980;19.776;2023-03-04T11:34:29;99138.31;;;1.72;100.00
38939;BME280;24211;49.980;19.776;2023-03-04T11:37:23;99136.34;;;1.74;100.00
38939;BME280;24211;49.980;19.776;2023-03-04T11:40:03;99134.97;;;1.78;100.00
38939;BME280;24211;49.980;19.776;2023-03-04T11:43:01;99130.72;;;1.77;100.00
38939;BME280;24211;49.980;19.776;2023-03-04T11:48:52;99121.13;;;1.84;100.00
38939;BME280;24211;49.980;19.776;2023-03-04T11:52:05;99117.16;;;1.88;100.00
38939;BME280;24211;49.980;19.776;2023-03-04T12:00:48;99103.22;;;2.02;100.00
38939;BME280;24211;49.980;19.776;2023-03-04T12:04:08;99108.13;;;2.05;100.00
38939;BME280;24211;49.980;19.776;2023-03-04T12:07:27;99098.22;;;2.07;100.00
38939;BME280;24211;49.980;19.776;2023-03-04T12:10:46;99096.91;;;2.11;100.00
38939;BME280;24211;49.980;19.776;2023-03-04T12:22:25;99091.50;;;2.27;100.00
38939;BME280;24211;49.980;19.776;2023-03-04T12:34:31;99087.63;;;2.38;100.00
38939;BME280;24211;49.980;19.776;2023-03-04T12:37:29;99087.44;;;2.39;100.00
38939;BME280;24211;49.980;19.776;2023-03-04T12:40:25;99077.88;;;2.38;100.00
38939;BME280;24211;49.980;19.776;2023-03-04T12:52:54;99084.25;;;2.44;100.00
38939;BME280;24211;49.980;19.776;2023-03-04T12:55:41;99076.00;;;2.47;100.00
38939;BME280;24211;49.980;19.776;2023-03-04T12:58:20;99084.88;;;2.46;100.00
38939;BME280;24211;49.980;19.776;2023-03-04T13:01:10;99082.09;;;2.47;100.00
38939;BME280;24211;49.980;19.776;2023-03-04T13:04:08;99073.91;;;2.42;100.00
38939;BME280;24211;49.980;19.776;2023-03-04T13:12:23;99056.63;;;2.54;100.00
38939;BME280;24211;49.980;19.776;2023-03-04T13:17:58;99048.66;;;2.62;100.00
38939;BME280;24211;49.980;19.776;2023-03-04T13:20:40;99041.38;;;2.64;100.00
38939;BME280;24211;49.980;19.776;2023-03-04T13:26:07;99042.28;;;2.72;100.00
38939;BME280;24211;49.980;19.776;2023-03-04T13:28:42;99038.94;;;2.78;100.00
38939;BME280;24211;49.980;19.776;2023-03-04T13:41:51;99029.56;;;2.90;100.00
38939;BME280;24211;49.980;19.776;2023-03-04T13:47:21;99026.72;;;2.91;100.00
38939;BME280;24211;49.980;19.776;2023-03-04T13:50:44;99028.16;;;2.94;100.00
38939;BME280;24211;49.980;19.776;2023-03-04T13:53:41;99020.72;;;2.97;100.00
38939;BME280;24211;49.980;19.776;2023-03-04T13:59:08;99025.44;;;3.02;100.00
38939;BME280;24211;49.980;19.776;2023-03-04T14:04:36;99020.78;;;3.04;100.00
38939;BME280;24211;49.980;19.776;2023-03-04T14:07:30;99013.50;;;3.06;100.00
38939;BME280;24211;49.980;19.776;2023-03-04T14:10:17;99011.06;;;3.04;100.00
38939;BME280;24211;49.980;19.776;2023-03-04T14:12:54;99007.97;;;3.01;100.00
38939;BME280;24211;49.980;19.776;2023-03-04T14:15:26;99015.88;;;3.01;100.00
38939;BME280;24211;49.980;19.776;2023-03-04T14:18:00;99008.94;;;3.00;100.00
38939;BME280;24211;49.980;19.776;2023-03-04T14:20:36;99015.88;;;3.01;100.00
38939;BME280;24211;49.980;19.776;2023-03-04T14:23:28;99005.31;;;3.01;100.00
38939;BME280;24211;49.980;19.776;2023-03-04T14:26:10;99009.59;;;3.02;100.00
38939;BME280;24211;49.980;19.776;2023-03-04T14:28:56;99014.22;;;3.00;100.00
38939;BME280;24211;49.980;19.776;2023-03-04T14:31:29;99010.78;;;2.99;100.00
38939;BME280;24211;49.980;19.776;2023-03-04T14:33:59;99004.69;;;2.99;100.00
38939;BME280;24211;49.980;19.776;2023-03-04T14:36:34;99008.50;;;2.96;100.00
38939;BME280;24211;49.980;19.776;2023-03-04T14:39:05;99010.97;;;2.98;100.00